createdAt,value
2022-08-03T00:01:37.105Z,3.38
2022-08-03T00:04:05.604Z,3.47
2022-08-03T00:06:36.917Z,2.58
2022-08-03T00:09:06.148Z,3.30
2022-08-03T00:11:33.659Z,1.92
2022-08-03T00:14:01.139Z,4.88
2022-08-03T00:16:28.548Z,2.28
2022-08-03T00:18:56.058Z,2.20
2022-08-03T00:21:23.416Z,2.00
2022-08-03T00:23:51.837Z,2.50
2022-08-03T00:26:23.210Z,2.30
2022-08-03T00:28:50.846Z,2.42
2022-08-03T00:31:22.270Z,3.97
2022-08-03T00:33:59.117Z,3.75
2022-08-03T00:36:27.548Z,1.73
2022-08-03T00:38:55.144Z,3.30
2022-08-03T00:41:22.680Z,3.50
2022-08-03T00:43:49.934Z,3.47
2022-08-03T00:46:21.350Z,2.70
2022-08-03T00:48:53.213Z,2.90
2022-08-03T00:51:22.211Z,2.35
2022-08-03T00:53:50.498Z,2.67
2022-08-03T00:56:18.310Z,3.88
2022-08-03T00:58:47.155Z,3.03
2022-08-03T01:01:15.182Z,2.78
2022-08-03T01:03:42.875Z,2.28
2022-08-03T01:06:57.812Z,2.88
2022-08-03T01:09:41.553Z,1.65
2022-08-03T01:12:22.815Z,1.93
2022-08-03T01:15:08.055Z,2.67
2022-08-03T01:17:44.312Z,2.50
2022-08-03T01:20:17.001Z,4.43
2022-08-03T01:22:56.417Z,3.03
2022-08-03T01:26:00.539Z,2.17
2022-08-03T01:28:42.620Z,3.15
2022-08-03T01:31:13.358Z,5.32
2022-08-03T01:33:44.000Z,1.95
2022-08-03T01:36:22.057Z,1.73
2022-08-03T01:38:56.096Z,2.15
2022-08-03T01:41:29.895Z,1.92
2022-08-03T01:44:30.209Z,2.85
2022-08-03T01:46:51.379Z,2.33
2022-08-03T01:49:19.136Z,1.95
2022-08-03T01:51:57.771Z,2.17
2022-08-03T01:54:40.444Z,2.70
2022-08-03T01:57:09.495Z,1.65
2022-08-03T01:59:38.847Z,2.15
2022-08-03T02:02:15.399Z,1.63
2022-08-03T02:04:57.608Z,2.78
2022-08-03T02:07:26.951Z,3.08
2022-08-03T02:09:55.776Z,3.72
2022-08-03T02:12:26.649Z,2.95
2022-08-03T02:14:56.419Z,2.40
2022-08-03T02:17:39.533Z,3.88
2022-08-03T02:20:12.220Z,3.45
2022-08-03T02:22:41.884Z,2.88
2022-08-03T02:25:11.057Z,1.90
2022-08-03T02:27:44.212Z,2.88
2022-08-03T02:30:13.410Z,2.30
2022-08-03T02:32:44.210Z,7.07
2022-08-03T02:35:14.841Z,6.57
2022-08-03T02:37:50.310Z,3.45
2022-08-03T02:40:20.371Z,5.97
2022-08-03T02:42:53.315Z,7.13
2022-08-03T02:45:24.294Z,3.08
2022-08-03T02:47:57.002Z,2.33
2022-08-03T02:50:26.170Z,2.83
2022-08-03T02:52:55.061Z,2.75
2022-08-03T02:55:24.002Z,3.42
2022-08-03T02:57:52.707Z,2.67
2022-08-03T03:00:28.110Z,4.70
2022-08-03T03:02:59.606Z,2.72
2022-08-03T03:05:52.192Z,2.13
2022-08-03T03:08:18.676Z,2.08
2022-08-03T03:10:48.966Z,4.03
2022-08-03T03:13:23.753Z,3.55
2022-08-03T03:15:52.914Z,1.90
2022-08-03T03:18:22.766Z,2.25
2022-08-03T03:20:52.514Z,3.78
2022-08-03T03:23:24.809Z,2.70
2022-08-03T03:25:52.948Z,3.80
2022-08-03T03:28:20.862Z,3.38
2022-08-03T03:30:52.658Z,4.35
2022-08-03T03:33:21.782Z,3.15
2022-08-03T03:35:49.450Z,2.30
2022-08-03T03:38:16.845Z,2.95
2022-08-03T03:40:44.924Z,4.05
2022-08-03T03:43:13.199Z,4.60
2022-08-03T03:45:44.366Z,2.85
2022-08-03T03:48:11.652Z,2.20
2022-08-03T03:50:42.139Z,2.95
2022-08-03T03:53:11.321Z,2.20
2022-08-03T03:55:57.729Z,3.72
2022-08-03T03:58:27.574Z,4.13
2022-08-03T04:00:54.933Z,3.53
2022-08-03T04:03:22.292Z,2.47
2022-08-03T04:06:08.170Z,2.75
2022-08-03T04:08:53.890Z,4.00
2022-08-03T04:11:31.922Z,3.88
2022-08-03T04:14:09.608Z,3.25
2022-08-03T04:16:43.867Z,4.82
2022-08-03T04:19:18.538Z,4.60
2022-08-03T04:21:52.795Z,2.05
2022-08-03T04:24:22.465Z,4.03
2022-08-03T04:26:56.124Z,4.30
2022-08-03T04:29:26.074Z,4.88
2022-08-03T04:31:56.836Z,4.57
2022-08-03T04:34:24.289Z,4.10
2022-08-03T04:37:00.717Z,3.55
2022-08-03T04:39:31.162Z,2.63
2022-08-03T04:42:08.785Z,2.90
2022-08-03T04:44:41.681Z,3.92
2022-08-03T04:47:09.567Z,3.55
2022-08-03T04:49:38.151Z,1.83
2022-08-03T04:52:07.774Z,2.38
2022-08-03T04:54:44.367Z,3.20
2022-08-03T04:57:22.352Z,3.50
2022-08-03T05:00:02.714Z,1.90
2022-08-03T05:02:32.243Z,2.75
2022-08-03T05:05:00.083Z,3.70
2022-08-03T05:07:35.882Z,1.88
2022-08-03T05:10:14.811Z,3.40
2022-08-03T05:12:43.578Z,3.05
2022-08-03T05:15:11.350Z,3.95
2022-08-03T05:17:38.651Z,3.67
2022-08-03T05:20:06.592Z,3.78
2022-08-03T05:22:34.052Z,2.45
2022-08-03T05:25:02.376Z,3.55
2022-08-03T05:27:29.761Z,4.85
2022-08-03T05:29:57.152Z,3.75
2022-08-03T05:32:44.648Z,2.80
2022-08-03T05:36:01.594Z,2.85
2022-08-03T05:37:59.177Z,3.85
2022-08-03T05:40:26.886Z,4.45
2022-08-03T05:42:54.440Z,3.25
2022-08-03T05:45:25.424Z,3.45
2022-08-03T05:47:55.684Z,5.28
2022-08-03T05:50:23.449Z,2.90
2022-08-03T05:52:50.816Z,5.32
2022-08-03T05:55:18.991Z,2.65
2022-08-03T05:57:48.018Z,6.40
2022-08-03T06:00:17.128Z,5.22
2022-08-03T06:02:44.713Z,6.05
2022-08-03T06:05:12.031Z,22.70
2022-08-03T06:07:39.443Z,15.60
2022-08-03T06:10:37.535Z,12.65
2022-08-03T06:12:55.114Z,13.93
2022-08-03T06:15:22.525Z,10.13
2022-08-03T06:17:51.432Z,14.77
2022-08-03T06:20:20.336Z,9.07
2022-08-03T06:23:00.493Z,11.25
2022-08-03T06:25:29.030Z,25.58
2022-08-03T06:27:56.456Z,18.92
2022-08-03T06:30:24.141Z,14.38
2022-08-03T06:32:51.961Z,12.25
2022-08-03T06:35:20.012Z,8.32
2022-08-03T06:37:49.823Z,9.52
2022-08-03T06:40:21.778Z,10.85
2022-08-03T06:42:51.916Z,9.52
2022-08-03T06:45:19.244Z,10.60
2022-08-03T06:47:46.557Z,8.65
2022-08-03T06:50:17.517Z,8.93
2022-08-03T06:52:45.901Z,9.55
2022-08-03T06:55:13.232Z,8.10
2022-08-03T06:57:40.513Z,9.02
2022-08-03T07:00:12.383Z,7.70
2022-08-03T07:02:40.939Z,9.90
2022-08-03T07:05:09.856Z,7.85
2022-08-03T07:07:38.005Z,5.68
2022-08-03T07:10:06.775Z,6.93
2022-08-03T07:12:35.490Z,8.02
2022-08-03T07:15:04.045Z,8.18
2022-08-03T07:17:33.482Z,7.57
2022-08-03T07:20:01.953Z,6.53
2022-08-03T07:22:29.393Z,5.50
2022-08-03T07:24:57.075Z,4.65
2022-08-03T07:27:26.759Z,9.13
2022-08-03T07:29:54.747Z,6.47
2022-08-03T07:32:22.080Z,5.25
2022-08-03T07:34:49.417Z,6.13
2022-08-03T07:37:16.888Z,8.40
2022-08-03T07:39:44.852Z,5.05
2022-08-03T07:42:12.149Z,6.97
2022-08-03T07:44:39.858Z,6.07
2022-08-03T07:47:07.081Z,5.88
2022-08-03T07:49:42.844Z,5.25
2022-08-03T07:52:28.918Z,5.07
2022-08-03T07:54:56.258Z,5.38
2022-08-03T07:57:23.773Z,5.75
2022-08-03T08:00:01.337Z,5.40
2022-08-03T08:02:29.773Z,4.22
2022-08-03T08:04:57.883Z,5.03
2022-08-03T08:07:27.377Z,5.35
2022-08-03T08:09:54.702Z,5.13
2022-08-03T08:12:22.290Z,6.38
2022-08-03T08:14:49.785Z,4.50
2022-08-03T08:17:17.153Z,5.82
2022-08-03T08:19:51.304Z,3.88
2022-08-03T08:22:23.492Z,6.40
2022-08-03T08:25:01.363Z,3.53
2022-08-03T08:28:29.974Z,4.43
2022-08-03T08:30:19.480Z,4.13
2022-08-03T08:32:47.385Z,6.50
2022-08-03T08:35:14.994Z,5.53
2022-08-03T08:37:43.328Z,3.90
2022-08-03T08:40:22.496Z,4.20
2022-08-03T08:42:58.847Z,4.15
2022-08-03T08:45:26.740Z,3.72
2022-08-03T08:48:01.002Z,4.00
2022-08-03T08:50:30.699Z,3.83
2022-08-03T08:53:03.352Z,3.75
2022-08-03T08:55:59.227Z,3.72
2022-08-03T08:58:22.244Z,3.97
2022-08-03T09:00:50.917Z,5.65
2022-08-03T09:03:22.564Z,4.72
2022-08-03T09:05:57.030Z,5.40
2022-08-03T09:08:24.661Z,5.13
2022-08-03T09:10:51.948Z,3.15
2022-08-03T09:13:19.534Z,4.55
2022-08-03T09:16:00.783Z,5.80
2022-08-03T09:18:32.674Z,5.05
2022-08-03T09:21:34.124Z,6.38
2022-08-03T09:24:05.635Z,6.20
2022-08-03T09:26:38.059Z,4.68
2022-08-03T09:29:14.573Z,4.88
2022-08-03T09:31:46.986Z,6.30
2022-08-03T09:34:18.259Z,4.10
2022-08-03T09:36:47.699Z,4.50
2022-08-03T09:39:19.969Z,3.58
2022-08-03T09:42:14.823Z,6.80
2022-08-03T09:44:45.378Z,5.10
2022-08-03T09:47:14.600Z,3.63
2022-08-03T09:49:43.280Z,4.57
2022-08-03T09:52:38.254Z,3.45
2022-08-03T09:55:23.692Z,4.57
2022-08-03T09:58:07.306Z,5.30
2022-08-03T10:00:55.047Z,4.38
2022-08-03T10:03:23.988Z,4.30
2022-08-03T10:05:53.023Z,3.90
2022-08-03T10:08:24.079Z,3.40
2022-08-03T10:10:57.886Z,3.47
2022-08-03T10:13:25.285Z,4.97
2022-08-03T10:16:21.711Z,4.97
2022-08-03T10:18:39.983Z,4.13
2022-08-03T10:21:10.687Z,5.18
2022-08-03T10:23:40.326Z,10.50
2022-08-03T10:26:12.565Z,4.20
2022-08-03T10:28:47.030Z,4.47
2022-08-03T10:31:16.538Z,5.18
2022-08-03T10:33:52.856Z,4.85
2022-08-03T10:36:24.772Z,3.67
2022-08-03T10:38:54.321Z,3.45
2022-08-03T10:41:25.574Z,3.70
2022-08-03T10:44:09.980Z,3.50
2022-08-03T10:46:44.317Z,4.45
2022-08-03T10:49:21.439Z,3.67
2022-08-03T10:52:11.349Z,3.33
2022-08-03T10:55:07.623Z,2.67
2022-08-03T10:57:56.180Z,5.35
2022-08-03T11:00:27.901Z,2.90
2022-08-03T11:03:09.141Z,4.97
2022-08-03T11:05:39.387Z,2.60
2022-08-03T11:08:28.221Z,5.00
2022-08-03T11:11:01.789Z,4.93
2022-08-03T11:13:32.058Z,5.53
2022-08-03T11:16:03.950Z,4.82
2022-08-03T11:18:34.007Z,3.53
2022-08-03T11:21:01.592Z,3.47
2022-08-03T11:24:04.913Z,2.58
2022-08-03T11:26:34.154Z,3.25
2022-08-03T11:29:31.464Z,4.28
2022-08-03T11:31:58.944Z,3.85
2022-08-03T11:34:26.482Z,3.15
2022-08-03T11:37:23.310Z,2.40
2022-08-03T11:39:53.329Z,3.13
2022-08-03T11:42:23.763Z,2.42
2022-08-03T11:45:00.843Z,3.47
2022-08-03T11:47:29.880Z,3.70
2022-08-03T11:50:02.104Z,2.95
2022-08-03T11:52:36.745Z,5.60
2022-08-03T11:55:10.458Z,3.72
2022-08-03T11:59:01.067Z,3.25
2022-08-03T12:00:33.045Z,5.03
2022-08-03T12:03:10.818Z,2.05
2022-08-03T12:05:53.235Z,3.05
2022-08-03T12:08:27.756Z,1.77
2022-08-03T12:10:57.266Z,1.95
2022-08-03T12:14:45.692Z,4.43
2022-08-03T12:16:21.267Z,2.53
2022-08-03T12:19:06.779Z,1.73
2022-08-03T12:21:34.282Z,3.20
2022-08-03T12:24:04.784Z,2.42
2022-08-03T12:26:45.106Z,2.40
2022-08-03T12:29:26.554Z,2.92
2022-08-03T12:31:54.034Z,2.65
2022-08-03T12:34:21.463Z,2.88
2022-08-03T12:36:56.907Z,2.20
2022-08-03T12:39:26.419Z,2.08
2022-08-03T12:41:54.919Z,3.65
2022-08-03T12:44:34.534Z,1.60
2022-08-03T12:47:03.513Z,2.15
2022-08-03T12:49:46.201Z,2.70
2022-08-03T12:52:13.561Z,2.33
2022-08-03T12:54:41.105Z,3.58
2022-08-03T12:57:15.894Z,2.33
2022-08-03T12:59:55.941Z,2.03
2022-08-03T13:02:25.914Z,2.30
2022-08-03T13:04:54.955Z,2.17
2022-08-03T13:07:23.256Z,1.75
2022-08-03T13:09:57.373Z,1.90
2022-08-03T13:12:27.110Z,1.63
2022-08-03T13:14:58.545Z,2.05
2022-08-03T13:17:26.884Z,1.92
2022-08-03T13:19:54.228Z,0.95
2022-08-03T13:22:27.378Z,1.42
2022-08-03T13:24:56.646Z,2.40
2022-08-03T13:28:03.348Z,1.60
2022-08-03T13:30:13.224Z,2.03
2022-08-03T13:32:41.063Z,2.20
2022-08-03T13:35:09.764Z,1.55
2022-08-03T13:37:38.044Z,2.88
2022-08-03T13:40:08.254Z,1.88
2022-08-03T13:42:39.117Z,2.95
2022-08-03T13:45:06.882Z,2.58
2022-08-03T13:47:34.244Z,4.07
2022-08-03T13:50:03.178Z,1.20
2022-08-03T13:52:34.945Z,1.70
2022-08-03T13:55:04.710Z,2.63
2022-08-03T13:58:05.382Z,2.65
2022-08-03T14:00:26.533Z,2.40
2022-08-03T14:03:05.313Z,4.65
2022-08-03T14:05:38.884Z,3.60
2022-08-03T14:08:07.674Z,2.90
2022-08-03T14:10:37.490Z,12.88
2022-08-03T14:13:05.912Z,6.45
2022-08-03T14:15:37.657Z,8.05
2022-08-03T14:18:15.910Z,9.63
2022-08-03T14:20:56.475Z,4.22
2022-08-03T14:23:25.631Z,4.88
2022-08-03T14:25:53.326Z,6.15
2022-08-03T14:28:23.032Z,6.63
2022-08-03T14:30:52.161Z,6.72
2022-08-03T14:33:20.027Z,7.30
2022-08-03T14:35:47.555Z,10.45
2022-08-03T14:38:15.058Z,8.35
2022-08-03T14:40:42.673Z,6.65
2022-08-03T14:43:10.559Z,5.57
2022-08-03T14:45:38.415Z,5.38
2022-08-03T14:50:33.225Z,5.30
2022-08-03T14:50:55.195Z,6.05
2022-08-03T14:53:23.097Z,5.72
2022-08-03T14:55:51.940Z,6.25
2022-08-03T14:58:21.826Z,7.00
2022-08-03T15:00:51.201Z,5.55
2022-08-03T15:03:23.321Z,7.25
2022-08-03T15:05:56.196Z,6.90
2022-08-03T15:08:24.917Z,9.35
2022-08-03T15:10:53.336Z,6.00
2022-08-03T15:13:21.359Z,6.80
2022-08-03T15:15:49.874Z,7.65
2022-08-03T15:18:17.478Z,7.32
2022-08-03T15:20:46.517Z,6.32
2022-08-03T15:23:15.668Z,6.05
2022-08-03T15:26:28.727Z,7.05
2022-08-03T15:28:32.856Z,6.38
2022-08-03T15:31:00.904Z,6.25
2022-08-03T15:33:29.111Z,6.47
2022-08-03T15:35:57.118Z,6.70
2022-08-03T15:38:25.724Z,6.47
2022-08-03T15:40:54.810Z,6.53
2022-08-03T15:43:23.799Z,6.18
2022-08-03T15:46:12.780Z,6.88
2022-08-03T15:48:39.307Z,6.50
2022-08-03T15:51:07.531Z,5.90
2022-08-03T15:53:34.915Z,5.93
2022-08-03T15:56:08.022Z,5.63
2022-08-03T15:59:04.174Z,5.60
2022-08-03T16:01:27.046Z,5.47
2022-08-03T16:03:54.731Z,6.00
2022-08-03T16:06:29.448Z,6.55
2022-08-03T16:09:02.439Z,11.25
2022-08-03T16:11:29.697Z,5.68
2022-08-03T16:14:13.726Z,6.15
2022-08-03T16:16:44.286Z,7.00
2022-08-03T16:19:11.590Z,10.60
2022-08-03T16:21:46.668Z,7.55
2022-08-03T16:24:17.437Z,12.20
2022-08-03T16:26:47.292Z,15.80
2022-08-03T16:29:23.334Z,18.02
2022-08-03T16:31:52.156Z,14.32
2022-08-03T16:34:20.094Z,9.75
2022-08-03T16:36:47.774Z,13.50
2022-08-03T16:39:15.234Z,7.68
2022-08-03T16:41:53.574Z,12.13
2022-08-03T16:44:29.695Z,11.50
2022-08-03T16:46:57.212Z,7.47
2022-08-03T16:49:55.291Z,7.93
2022-08-03T16:52:12.824Z,7.43
2022-08-03T16:54:40.825Z,10.35
2022-08-03T16:57:08.645Z,16.35
2022-08-03T16:59:36.971Z,21.08
2022-08-03T17:02:10.213Z,11.63
2022-08-03T17:04:40.381Z,19.30
2022-08-03T17:07:08.912Z,20.85
2022-08-03T17:09:38.736Z,17.23
2022-08-03T17:12:07.570Z,15.50
2022-08-03T17:14:38.879Z,16.50
2022-08-03T17:17:16.195Z,13.80
2022-08-03T17:19:47.462Z,16.08
2022-08-03T17:22:28.074Z,11.65
2022-08-03T17:24:58.462Z,12.35
2022-08-03T17:28:48.763Z,23.20
2022-08-03T17:30:19.056Z,15.27
2022-08-03T17:32:57.073Z,9.10
2022-08-03T17:35:34.339Z,13.85
2022-08-03T17:38:06.636Z,14.00
2022-08-03T17:40:37.958Z,46.80
2022-08-03T17:44:08.082Z,18.38
2022-08-03T17:45:55.021Z,16.27
2022-08-03T17:48:25.117Z,17.70
2022-08-03T17:50:59.113Z,26.08
2022-08-03T17:53:33.053Z,26.08
2022-08-03T17:56:45.125Z,20.63
2022-08-03T17:59:50.917Z,18.88
2022-08-03T18:03:06.948Z,14.48
2022-08-03T18:08:32.373Z,12.63
2022-08-03T18:11:14.259Z,15.77
2022-08-03T18:13:58.118Z,10.82
2022-08-03T18:16:33.434Z,16.02
2022-08-03T18:19:09.527Z,23.85
2022-08-03T18:22:02.830Z,58.22
2022-08-03T18:24:30.452Z,42.75
2022-08-03T18:26:59.059Z,37.05
2022-08-03T18:29:27.500Z,32.00
2022-08-03T18:34:53.049Z,21.75
2022-08-03T18:37:25.758Z,30.77
2022-08-03T18:39:57.883Z,16.30
2022-08-03T18:42:26.969Z,21.92
2022-08-03T18:44:56.387Z,14.95
2022-08-03T18:47:27.318Z,18.13
2022-08-03T18:50:19.265Z,12.77
2022-08-03T18:52:56.412Z,16.20
2022-08-03T18:55:33.495Z,14.45
2022-08-03T18:58:15.928Z,9.60
2022-08-03T19:01:03.522Z,32.22
2022-08-03T19:03:42.897Z,20.88
2022-08-03T19:06:19.916Z,19.75
2022-08-03T19:09:05.222Z,12.30
2022-08-03T19:12:13.365Z,12.05
2022-08-03T19:14:47.366Z,7.60
2022-08-03T19:17:21.188Z,21.75
2022-08-03T19:22:23.062Z,20.58
2022-08-03T19:24:53.882Z,11.95
2022-08-03T19:27:26.878Z,10.93
2022-08-03T19:30:01.253Z,5.87
2022-08-03T19:32:32.716Z,7.35
2022-08-03T19:35:02.662Z,9.68
2022-08-03T19:37:38.032Z,8.25
2022-08-03T19:40:10.236Z,9.40
2022-08-03T19:42:44.402Z,9.25
2022-08-03T19:45:17.073Z,7.95
2022-08-03T19:47:55.624Z,10.57
2022-08-03T19:50:25.194Z,7.45
2022-08-03T19:52:52.865Z,4.47
2022-08-03T19:55:20.414Z,10.02
2022-08-03T19:57:49.727Z,21.50
2022-08-03T20:00:20.031Z,13.00
2022-08-03T20:02:54.418Z,9.95
2022-08-03T20:05:21.841Z,11.57
2022-08-03T20:07:50.795Z,12.40
2022-08-03T20:10:20.140Z,8.38
2022-08-03T20:12:49.607Z,16.10
2022-08-03T20:15:18.240Z,11.15
2022-08-03T20:17:56.710Z,11.73
2022-08-03T20:20:30.283Z,10.85
2022-08-03T20:23:00.084Z,15.10
2022-08-03T20:25:38.101Z,9.90
2022-08-03T20:28:13.434Z,14.68
2022-08-03T20:30:47.476Z,13.05
2022-08-03T20:33:18.614Z,20.85
2022-08-03T20:35:49.133Z,16.50
2022-08-03T20:38:18.562Z,17.05
2022-08-03T20:40:46.795Z,13.60
2022-08-03T20:43:14.505Z,21.63
2022-08-03T20:45:59.651Z,10.80
2022-08-03T20:48:30.240Z,10.80
2022-08-03T20:50:58.121Z,7.68
2022-08-03T20:53:59.524Z,8.13
2022-08-03T20:56:14.894Z,9.98
2022-08-03T20:58:42.923Z,8.07
2022-08-03T21:01:27.590Z,12.35
2022-08-03T21:04:07.070Z,12.40
2022-08-03T21:06:42.321Z,19.98
2022-08-03T21:09:19.017Z,10.73
2022-08-03T21:11:51.461Z,9.63
2022-08-03T21:13:04.019Z,36.05
2022-08-03T21:13:05.867Z,13.98
2022-08-03T21:14:43.501Z,7.68
2022-08-03T21:17:25.079Z,5.15
2022-08-03T21:20:07.800Z,7.28
2022-08-03T21:25:09.416Z,6.30
2022-08-03T21:27:37.388Z,4.50
2022-08-03T21:30:10.737Z,3.45
2022-08-03T21:32:40.788Z,4.87
2022-08-03T21:35:12.457Z,6.93
2022-08-03T21:37:41.882Z,4.07
2022-08-03T21:40:12.152Z,5.50
2022-08-03T21:42:40.323Z,6.55
2022-08-03T21:45:16.582Z,5.32
2022-08-03T21:47:45.589Z,3.05
2022-08-03T21:50:13.955Z,2.35
2022-08-03T21:52:44.475Z,5.55
2022-08-03T21:55:20.928Z,4.28
2022-08-03T21:57:53.178Z,3.58
2022-08-03T22:00:23.426Z,4.30
2022-08-03T22:02:57.427Z,3.95
2022-08-03T22:05:42.713Z,2.85
2022-08-03T22:08:15.285Z,4.10
2022-08-03T22:10:46.701Z,4.68
2022-08-03T22:13:19.478Z,3.25
2022-08-03T22:16:03.825Z,2.88
2022-08-03T22:18:31.262Z,4.30
2022-08-03T22:21:00.611Z,1.90
2022-08-03T22:23:28.157Z,2.97
2022-08-03T22:25:58.460Z,5.07
2022-08-03T22:28:30.375Z,4.43
2022-08-03T22:31:00.141Z,3.53
2022-08-03T22:33:49.390Z,2.97
2022-08-03T22:36:20.412Z,3.22
2022-08-03T22:38:53.138Z,3.38
2022-08-03T22:41:21.200Z,3.88
2022-08-03T22:43:49.702Z,3.00
2022-08-03T22:46:21.068Z,2.25
2022-08-03T22:48:50.601Z,1.90
2022-08-03T22:51:19.579Z,2.28
2022-08-03T22:53:47.124Z,3.28
2022-08-03T22:56:14.843Z,2.92
2022-08-03T22:58:42.171Z,3.33
2022-08-03T23:01:14.421Z,3.22
2022-08-03T23:03:59.901Z,2.35
2022-08-03T23:06:34.564Z,3.13
2022-08-03T23:09:08.984Z,2.25
2022-08-03T23:11:45.825Z,3.45
2022-08-03T23:14:19.122Z,4.63
2022-08-03T23:16:48.021Z,3.72
2022-08-03T23:19:25.545Z,2.80
2022-08-03T23:22:02.414Z,4.05
2022-08-03T23:24:36.013Z,2.00
2022-08-03T23:27:05.290Z,3.25
2022-08-03T23:29:36.514Z,3.90
2022-08-03T23:32:05.668Z,2.80
2022-08-03T23:34:52.281Z,2.35
2022-08-03T23:37:20.630Z,2.35
2022-08-03T23:39:49.618Z,3.28
2022-08-03T23:42:21.063Z,3.08
2022-08-03T23:44:53.671Z,2.25
2022-08-03T23:47:21.176Z,4.53
2022-08-03T23:49:48.938Z,2.40
2022-08-03T23:52:27.827Z,2.30
2022-08-03T23:55:21.046Z,2.83
2022-08-03T23:58:12.299Z,3.35
